createdAt,value
2018-12-19T00:02:21.836Z,85.02
2018-12-19T00:04:49.312Z,85.90
2018-12-19T00:07:16.568Z,86.62
2018-12-19T00:09:43.804Z,86.50
2018-12-19T00:12:11.046Z,86.85
2018-12-19T00:14:38.313Z,85.05
2018-12-19T00:17:05.529Z,85.63
2018-12-19T00:19:32.773Z,85.18
2018-12-19T00:21:59.988Z,84.48
2018-12-19T00:24:27.255Z,85.93
2018-12-19T00:26:54.468Z,86.44
2018-12-19T00:29:21.713Z,85.66
2018-12-19T00:31:49.117Z,84.43
2018-12-19T00:34:16.416Z,84.76
2018-12-19T00:36:43.662Z,84.19
2018-12-19T00:39:10.890Z,85.15
2018-12-19T00:41:38.128Z,85.77
2018-12-19T00:44:05.409Z,85.09
2018-12-19T00:46:32.666Z,84.99
2018-12-19T00:48:59.907Z,84.87
2018-12-19T00:51:27.156Z,84.47
2018-12-19T00:53:54.389Z,84.39
2018-12-19T00:56:21.642Z,84.58
2018-12-19T00:58:48.944Z,85.63
2018-12-19T01:01:16.263Z,84.74
2018-12-19T01:03:43.498Z,84.97
2018-12-19T01:06:10.982Z,84.29
2018-12-19T01:08:38.276Z,84.37
2018-12-19T01:11:05.563Z,84.41
2018-12-19T01:13:32.839Z,84.33
2018-12-19T01:16:00.099Z,84.41
2018-12-19T01:18:27.366Z,84.09
2018-12-19T01:20:54.604Z,84.14
2018-12-19T01:23:21.835Z,83.68
2018-12-19T01:25:49.073Z,83.44
2018-12-19T01:28:16.308Z,83.17
2018-12-19T01:30:43.553Z,83.94
2018-12-19T01:33:10.781Z,84.10
2018-12-19T01:35:38.406Z,84.45
2018-12-19T01:38:05.924Z,83.30
2018-12-19T01:40:33.198Z,83.14
2018-12-19T01:43:00.436Z,81.96
2018-12-19T01:45:27.680Z,83.88
2018-12-19T01:47:55.242Z,82.59
2018-12-19T01:50:22.464Z,82.38
2018-12-19T01:52:49.732Z,82.91
2018-12-19T01:55:16.971Z,83.77
2018-12-19T01:57:44.226Z,82.99
2018-12-19T02:00:11.464Z,83.96
2018-12-19T02:02:38.721Z,83.66
2018-12-19T02:05:06.103Z,83.21
2018-12-19T02:07:33.367Z,84.06
2018-12-19T02:10:00.710Z,83.92
2018-12-19T02:12:27.993Z,84.34
2018-12-19T02:14:55.335Z,85.12
2018-12-19T02:17:22.608Z,83.77
2018-12-19T02:19:49.820Z,84.08
2018-12-19T02:22:17.084Z,83.64
2018-12-19T02:24:44.308Z,85.73
2018-12-19T02:27:11.555Z,84.19
2018-12-19T02:29:38.782Z,84.27
2018-12-19T02:32:08.414Z,85.83
2018-12-19T02:34:35.876Z,84.16
2018-12-19T02:37:03.169Z,84.35
2018-12-19T02:39:36.158Z,84.65
2018-12-19T02:41:59.707Z,84.29
2018-12-19T02:44:26.928Z,84.44
2018-12-19T02:46:54.185Z,83.29
2018-12-19T02:49:21.421Z,83.63
2018-12-19T02:51:48.678Z,84.06
2018-12-19T02:54:15.914Z,83.09
2018-12-19T02:56:43.170Z,82.66
2018-12-19T02:59:10.425Z,82.75
2018-12-19T03:01:37.673Z,83.11
2018-12-19T03:04:04.943Z,82.67
2018-12-19T03:06:32.180Z,83.02
2018-12-19T03:08:59.401Z,83.98
2018-12-19T03:11:26.664Z,82.67
2018-12-19T03:13:55.917Z,82.74
2018-12-19T03:16:23.376Z,84.34
2018-12-19T03:18:50.856Z,84.29
2018-12-19T03:21:18.076Z,84.03
2018-12-19T03:23:45.333Z,84.39
2018-12-19T03:26:12.578Z,84.89
2018-12-19T03:28:39.836Z,84.66
2018-12-19T03:31:07.178Z,84.89
2018-12-19T03:33:35.219Z,84.45
2018-12-19T03:36:02.453Z,83.55
2018-12-19T03:38:29.709Z,83.64
2018-12-19T03:40:56.948Z,82.03
2018-12-19T03:43:24.187Z,82.89
2018-12-19T03:45:51.411Z,82.43
2018-12-19T03:48:24.389Z,84.00
2018-12-19T03:50:51.755Z,84.37
2018-12-19T03:53:18.990Z,83.28
2018-12-19T03:55:46.183Z,82.97
2018-12-19T03:58:13.425Z,82.34
2018-12-19T04:00:40.660Z,82.84
2018-12-19T04:03:07.885Z,84.48
2018-12-19T04:05:35.161Z,85.06
2018-12-19T04:08:02.570Z,85.36
2018-12-19T04:10:29.869Z,85.62
2018-12-19T04:12:57.119Z,84.35
2018-12-19T04:15:24.314Z,84.25
2018-12-19T04:17:51.544Z,84.51
2018-12-19T04:20:19.106Z,84.39
2018-12-19T04:22:46.361Z,84.25
2018-12-19T04:25:13.573Z,83.15
2018-12-19T04:27:40.813Z,82.53
2018-12-19T04:30:08.275Z,82.66
2018-12-19T04:32:35.977Z,82.46
2018-12-19T04:35:03.428Z,83.22
2018-12-19T04:37:30.752Z,83.18
2018-12-19T04:40:05.147Z,82.50
2018-12-19T04:42:27.284Z,84.28
2018-12-19T04:44:54.489Z,84.77
2018-12-19T04:47:21.699Z,84.87
2018-12-19T04:49:48.942Z,83.71
2018-12-19T04:52:16.259Z,83.15
2018-12-19T04:54:43.494Z,83.49
2018-12-19T04:57:10.726Z,83.74
2018-12-19T04:59:37.960Z,83.66
2018-12-19T05:02:05.189Z,83.28
2018-12-19T05:04:32.417Z,82.84
2018-12-19T05:06:59.692Z,83.67
2018-12-19T05:09:26.948Z,82.66
2018-12-19T05:11:54.187Z,83.40
2018-12-19T05:14:21.739Z,82.57
2018-12-19T05:16:48.951Z,82.95
2018-12-19T05:19:16.164Z,82.01
2018-12-19T05:21:43.376Z,82.13
2018-12-19T05:24:10.599Z,82.02
2018-12-19T05:26:37.803Z,82.68
2018-12-19T05:29:05.060Z,83.12
2018-12-19T05:31:32.273Z,82.77
2018-12-19T05:33:59.482Z,83.72
2018-12-19T05:36:26.683Z,82.19
2018-12-19T05:38:53.920Z,82.15
2018-12-19T05:41:21.153Z,83.14
2018-12-19T05:43:48.358Z,82.67
2018-12-19T05:46:15.600Z,82.92
2018-12-19T05:48:42.837Z,82.21
2018-12-19T05:51:10.066Z,82.61
2018-12-19T05:53:37.305Z,83.38
2018-12-19T05:56:04.537Z,84.56
2018-12-19T05:58:31.747Z,85.28
2018-12-19T06:00:58.992Z,88.70
2018-12-19T06:03:26.205Z,88.43
2018-12-19T06:05:53.463Z,89.08
2018-12-19T06:08:20.696Z,89.60
2018-12-19T06:10:47.927Z,90.38
2018-12-19T06:13:15.130Z,91.15
2018-12-19T06:15:42.369Z,92.03
2018-12-19T06:18:09.565Z,91.61
2018-12-19T06:20:36.801Z,91.87
2018-12-19T06:23:04.041Z,91.41
2018-12-19T06:25:31.259Z,93.01
2018-12-19T06:27:58.477Z,93.17
2018-12-19T06:30:26.137Z,93.23
2018-12-19T06:32:53.476Z,94.91
2018-12-19T06:35:20.764Z,94.01
2018-12-19T06:37:47.954Z,93.78
2018-12-19T06:40:15.196Z,94.34
2018-12-19T06:42:42.549Z,93.91
2018-12-19T06:45:09.783Z,93.76
2018-12-19T06:47:37.012Z,94.16
2018-12-19T06:50:05.639Z,94.74
2018-12-19T06:52:32.848Z,94.66
2018-12-19T06:55:00.051Z,95.92
2018-12-19T06:57:27.544Z,95.96
2018-12-19T06:59:54.728Z,96.56
2018-12-19T07:02:22.031Z,96.76
2018-12-19T07:04:49.238Z,96.77
2018-12-19T07:07:16.463Z,97.65
2018-12-19T07:09:43.767Z,97.23
2018-12-19T07:12:11.172Z,97.75
2018-12-19T07:14:40.706Z,97.82
2018-12-19T07:17:08.228Z,97.37
2018-12-19T07:19:35.445Z,97.24
2018-12-19T07:22:02.815Z,96.68
2018-12-19T07:24:30.089Z,97.54
2018-12-19T07:26:57.330Z,98.05
2018-12-19T07:29:26.159Z,97.56
2018-12-19T07:31:53.401Z,97.37
2018-12-19T07:34:20.632Z,97.42
2018-12-19T07:36:47.874Z,97.69
2018-12-19T07:39:21.947Z,97.63
2018-12-19T07:41:49.196Z,97.71
2018-12-19T07:44:16.880Z,97.92
2018-12-19T07:46:44.468Z,98.37
2018-12-19T07:49:11.708Z,98.88
2018-12-19T07:51:39.301Z,98.53
2018-12-19T07:54:06.525Z,99.09
2018-12-19T07:56:33.829Z,98.67
2018-12-19T07:59:01.085Z,98.72
2018-12-19T08:01:28.304Z,99.30
2018-12-19T08:03:55.528Z,98.40
2018-12-19T08:06:22.756Z,98.84
2018-12-19T08:08:50.008Z,98.90
2018-12-19T08:11:17.232Z,97.30
2018-12-19T08:13:44.465Z,97.02
2018-12-19T08:16:11.707Z,96.62
2018-12-19T08:18:38.993Z,96.95
2018-12-19T08:21:06.204Z,96.66
2018-12-19T08:23:33.435Z,96.64
2018-12-19T08:26:00.641Z,96.48
2018-12-19T08:28:27.910Z,95.97
2018-12-19T08:30:55.122Z,96.69
2018-12-19T08:33:22.420Z,96.51
2018-12-19T08:35:49.809Z,96.40
2018-12-19T08:38:18.158Z,96.19
2018-12-19T08:40:45.390Z,96.56
2018-12-19T08:43:12.635Z,95.54
2018-12-19T08:45:40.275Z,96.85
2018-12-19T08:48:07.479Z,96.00
2018-12-19T08:50:34.689Z,96.12
2018-12-19T08:53:01.915Z,96.51
2018-12-19T08:55:29.181Z,95.56
2018-12-19T08:57:56.448Z,96.49
2018-12-19T09:00:24.223Z,96.41
2018-12-19T09:02:51.665Z,96.08
2018-12-19T09:05:18.872Z,95.96
2018-12-19T09:07:46.267Z,96.17
2018-12-19T09:10:13.538Z,95.94
2018-12-19T09:12:40.744Z,95.64
2018-12-19T09:15:08.133Z,95.31
2018-12-19T09:17:35.887Z,95.99
2018-12-19T09:20:03.891Z,95.40
2018-12-19T09:22:31.183Z,96.28
2018-12-19T09:24:58.459Z,96.08
2018-12-19T09:27:25.708Z,95.38
2018-12-19T09:29:52.937Z,95.66
2018-12-19T09:32:20.172Z,95.10
2018-12-19T09:34:47.397Z,95.38
2018-12-19T09:37:14.634Z,95.62
2018-12-19T09:39:41.869Z,95.68
2018-12-19T09:42:09.094Z,96.45
2018-12-19T09:44:36.353Z,95.18
2018-12-19T09:47:03.580Z,95.46
2018-12-19T09:49:30.814Z,95.39
2018-12-19T09:51:58.075Z,95.72
2018-12-19T09:54:25.415Z,95.86
2018-12-19T09:56:53.470Z,95.38
2018-12-19T09:59:20.893Z,95.67
2018-12-19T10:01:48.141Z,95.39
2018-12-19T10:04:15.401Z,95.40
2018-12-19T10:06:42.604Z,95.49
2018-12-19T10:09:14.780Z,95.23
2018-12-19T10:11:39.271Z,95.05
2018-12-19T10:14:06.661Z,96.00
2018-12-19T10:16:33.880Z,95.81
2018-12-19T10:19:01.133Z,96.22
2018-12-19T10:21:28.723Z,95.76
2018-12-19T10:23:55.975Z,95.46
2018-12-19T10:26:23.308Z,96.22
2018-12-19T10:28:50.584Z,94.93
2018-12-19T10:31:18.006Z,95.11
2018-12-19T10:33:45.512Z,95.80
2018-12-19T10:36:12.751Z,96.22
2018-12-19T10:38:39.937Z,95.35
2018-12-19T10:41:07.426Z,94.89
2018-12-19T10:43:34.641Z,95.88
2018-12-19T10:46:01.877Z,96.36
2018-12-19T10:48:29.068Z,96.10
2018-12-19T10:50:56.523Z,96.27
2018-12-19T10:53:23.730Z,96.11
2018-12-19T10:55:50.998Z,96.61
2018-12-19T10:58:18.201Z,97.74
2018-12-19T11:00:51.161Z,98.15
2018-12-19T11:03:18.461Z,98.33
2018-12-19T11:05:45.711Z,97.96
2018-12-19T11:08:12.922Z,97.83
2018-12-19T11:10:41.157Z,99.03
2018-12-19T11:13:08.470Z,98.89
2018-12-19T11:15:35.738Z,98.54
2018-12-19T11:18:02.978Z,97.73
2018-12-19T11:20:30.216Z,96.97
2018-12-19T11:22:57.456Z,96.68
2018-12-19T11:25:24.668Z,96.35
2018-12-19T11:27:51.972Z,95.99
2018-12-19T11:30:19.278Z,95.66
2018-12-19T11:32:46.521Z,94.83
2018-12-19T11:35:13.792Z,95.15
2018-12-19T11:37:41.040Z,93.94
2018-12-19T11:40:08.754Z,94.07
2018-12-19T11:42:36.040Z,93.84
2018-12-19T11:45:04.070Z,93.54
2018-12-19T11:47:31.332Z,91.65
2018-12-19T11:49:58.561Z,90.85
2018-12-19T11:52:25.829Z,91.28
2018-12-19T11:54:53.060Z,90.18
2018-12-19T11:57:20.325Z,91.58
2018-12-19T11:59:47.550Z,89.74
2018-12-19T12:02:14.796Z,88.40
2018-12-19T12:04:42.006Z,88.18
2018-12-19T12:07:09.673Z,88.34
2018-12-19T12:09:36.996Z,88.23
2018-12-19T12:12:04.234Z,89.69
2018-12-19T12:14:31.455Z,89.52
2018-12-19T12:16:58.760Z,88.66
2018-12-19T12:19:26.136Z,88.94
2018-12-19T12:21:53.370Z,88.00
2018-12-19T12:24:20.603Z,87.71
2018-12-19T12:26:47.826Z,87.01
2018-12-19T12:29:15.075Z,85.40
2018-12-19T12:31:42.322Z,85.52
2018-12-19T12:34:09.610Z,86.45
2018-12-19T12:36:36.885Z,84.62
2018-12-19T12:39:06.817Z,84.61
2018-12-19T12:41:34.033Z,87.16
2018-12-19T12:44:01.285Z,85.48
2018-12-19T12:46:28.510Z,85.44
2018-12-19T12:48:55.905Z,85.72
2018-12-19T12:51:23.140Z,84.85
2018-12-19T12:53:50.403Z,84.76
2018-12-19T12:56:17.640Z,85.69
2018-12-19T12:58:44.901Z,85.68
2018-12-19T13:01:12.213Z,86.06
2018-12-19T13:03:39.565Z,85.99
2018-12-19T13:06:07.014Z,85.45
2018-12-19T13:08:34.298Z,87.40
2018-12-19T13:11:01.605Z,86.23
2018-12-19T13:13:28.961Z,87.25
2018-12-19T13:15:56.244Z,87.18
2018-12-19T13:18:23.512Z,87.75
2018-12-19T13:20:50.734Z,87.63
2018-12-19T13:23:18.154Z,88.44
2018-12-19T13:25:45.401Z,87.87
2018-12-19T13:28:16.186Z,88.18
2018-12-19T13:30:43.546Z,88.66
2018-12-19T13:33:10.970Z,89.20
2018-12-19T13:35:38.280Z,88.40
2018-12-19T13:38:05.630Z,89.27
2018-12-19T13:40:32.984Z,88.96
2018-12-19T13:43:00.195Z,88.98
2018-12-19T13:45:27.527Z,88.73
2018-12-19T13:47:54.783Z,89.27
2018-12-19T13:50:22.105Z,89.75
2018-12-19T13:52:49.374Z,89.65
2018-12-19T13:55:16.621Z,88.41
2018-12-19T13:57:43.828Z,88.42
2018-12-19T14:00:11.364Z,87.91
2018-12-19T14:02:38.666Z,89.37
2018-12-19T14:05:06.099Z,88.34
2018-12-19T14:07:33.337Z,88.74
2018-12-19T14:10:00.724Z,88.96
2018-12-19T14:12:28.000Z,88.49
2018-12-19T14:14:55.240Z,89.20
2018-12-19T14:17:22.625Z,88.96
2018-12-19T14:19:49.888Z,90.27
2018-12-19T14:22:17.280Z,89.70
2018-12-19T14:24:44.539Z,88.80
2018-12-19T14:27:11.840Z,89.27
2018-12-19T14:29:39.116Z,89.15
2018-12-19T14:32:06.339Z,88.99
2018-12-19T14:34:33.727Z,88.70
2018-12-19T14:37:00.945Z,89.50
2018-12-19T14:39:28.253Z,89.84
2018-12-19T14:41:55.633Z,90.07
2018-12-19T14:44:22.919Z,90.30
2018-12-19T14:46:50.194Z,90.99
2018-12-19T14:49:17.856Z,90.90
2018-12-19T14:51:45.110Z,90.38
2018-12-19T14:54:12.461Z,90.14
2018-12-19T14:56:39.779Z,90.26
2018-12-19T14:59:07.032Z,90.58
2018-12-19T15:01:34.316Z,90.52
2018-12-19T15:04:01.656Z,91.42
2018-12-19T15:06:28.978Z,91.03
2018-12-19T15:08:56.369Z,90.28
2018-12-19T15:11:23.636Z,90.71
2018-12-19T15:13:51.021Z,91.41
2018-12-19T15:16:22.535Z,92.05
2018-12-19T15:18:51.800Z,90.94
2018-12-19T15:21:20.440Z,90.79
2018-12-19T15:23:48.228Z,91.48
2018-12-19T15:26:16.057Z,91.27
2018-12-19T15:28:43.859Z,92.03
2018-12-19T15:31:11.220Z,92.00
2018-12-19T15:33:38.496Z,92.05
2018-12-19T15:36:07.144Z,92.18
2018-12-19T15:38:35.121Z,92.75
2018-12-19T15:41:02.646Z,93.03
2018-12-19T15:43:30.433Z,92.63
2018-12-19T15:45:57.752Z,92.82
2018-12-19T15:48:25.429Z,92.70
2018-12-19T15:50:52.774Z,93.07
2018-12-19T15:53:20.050Z,92.99
2018-12-19T15:55:47.416Z,92.79
2018-12-19T15:58:14.743Z,92.95
2018-12-19T16:00:43.726Z,93.70
2018-12-19T16:03:12.397Z,94.27
2018-12-19T16:05:41.458Z,93.82
2018-12-19T16:08:10.235Z,93.94
2018-12-19T16:10:39.063Z,94.54
2018-12-19T16:13:07.850Z,94.21
2018-12-19T16:15:36.238Z,94.75
2018-12-19T16:18:05.189Z,94.73
2018-12-19T16:20:34.469Z,94.19
2018-12-19T16:23:03.260Z,94.40
2018-12-19T16:25:31.858Z,94.57
2018-12-19T16:28:00.537Z,94.82
2018-12-19T16:30:28.158Z,95.75
2018-12-19T16:32:57.322Z,96.11
2018-12-19T16:35:26.370Z,95.39
2018-12-19T16:37:55.283Z,95.84
2018-12-19T16:40:23.904Z,96.11
2018-12-19T16:42:53.227Z,95.81
2018-12-19T16:45:20.530Z,95.73
2018-12-19T16:47:47.775Z,95.54
2018-12-19T16:50:14.981Z,96.12
2018-12-19T16:52:42.253Z,96.35
2018-12-19T16:55:09.713Z,96.11
2018-12-19T16:57:36.938Z,96.92
2018-12-19T17:00:05.224Z,96.59
2018-12-19T17:02:32.672Z,96.82
2018-12-19T17:04:59.943Z,96.72
2018-12-19T17:07:27.177Z,96.37
2018-12-19T17:09:54.388Z,95.61
2018-12-19T17:12:21.645Z,95.82
2018-12-19T17:14:48.876Z,96.16
2018-12-19T17:17:16.204Z,95.84
2018-12-19T17:19:43.415Z,96.40
2018-12-19T17:22:10.804Z,97.13
2018-12-19T17:24:40.250Z,96.22
2018-12-19T17:27:07.629Z,97.41
2018-12-19T17:29:35.077Z,97.33
2018-12-19T17:32:02.473Z,97.67
2018-12-19T17:34:29.765Z,96.94
2018-12-19T17:36:56.987Z,97.94
2018-12-19T17:39:24.210Z,97.59
2018-12-19T17:41:51.496Z,98.14
2018-12-19T17:44:18.770Z,97.89
2018-12-19T17:46:46.026Z,98.08
2018-12-19T17:49:13.404Z,98.33
2018-12-19T17:51:40.662Z,98.79
2018-12-19T17:54:07.968Z,98.98
2018-12-19T17:56:35.317Z,99.34
2018-12-19T17:59:02.923Z,99.37
2018-12-19T18:01:30.273Z,99.04
2018-12-19T18:03:57.516Z,99.35
2018-12-19T18:06:24.729Z,98.34
2018-12-19T18:08:52.041Z,98.38
2018-12-19T18:11:19.253Z,98.28
2018-12-19T18:13:46.629Z,98.41
2018-12-19T18:16:14.159Z,98.41
2018-12-19T18:18:41.391Z,96.99
2018-12-19T18:21:08.616Z,96.65
2018-12-19T18:23:35.889Z,96.66
2018-12-19T18:26:03.397Z,96.12
2018-12-19T18:28:30.624Z,96.07
2018-12-19T18:30:57.844Z,96.19
2018-12-19T18:33:25.097Z,96.54
2018-12-19T18:35:52.350Z,96.41
2018-12-19T18:38:19.654Z,96.60
2018-12-19T18:40:46.951Z,97.67
2018-12-19T18:43:14.188Z,97.50
2018-12-19T18:45:41.545Z,96.95
2018-12-19T18:48:08.833Z,95.98
2018-12-19T18:50:36.201Z,97.11
2018-12-19T18:53:03.504Z,97.41
2018-12-19T18:55:30.715Z,97.87
2018-12-19T18:57:57.915Z,97.46
2018-12-19T19:00:31.293Z,97.19
2018-12-19T19:02:58.633Z,97.57
2018-12-19T19:05:26.133Z,97.54
2018-12-19T19:07:53.410Z,97.64
2018-12-19T19:10:20.660Z,96.81
2018-12-19T19:12:48.151Z,97.26
2018-12-19T19:15:15.407Z,96.84
2018-12-19T19:17:42.753Z,96.48
2018-12-19T19:20:10.068Z,95.32
2018-12-19T19:22:37.317Z,95.44
2018-12-19T19:25:04.824Z,96.95
2018-12-19T19:27:32.043Z,96.07
2018-12-19T19:29:59.361Z,96.80
2018-12-19T19:32:26.605Z,96.53
2018-12-19T19:34:53.858Z,97.21
2018-12-19T19:37:21.102Z,97.26
2018-12-19T19:39:48.363Z,97.92
2018-12-19T19:42:15.626Z,97.00
2018-12-19T19:44:42.873Z,96.63
2018-12-19T19:47:10.113Z,96.02
2018-12-19T19:49:37.429Z,96.88
2018-12-19T19:52:04.675Z,96.38
2018-12-19T19:54:31.909Z,95.56
2018-12-19T19:56:59.133Z,95.87
2018-12-19T19:59:26.388Z,96.22
2018-12-19T20:01:53.693Z,97.71
2018-12-19T20:04:21.144Z,96.66
2018-12-19T20:06:48.391Z,96.52
2018-12-19T20:09:15.680Z,96.83
2018-12-19T20:11:42.937Z,96.70
2018-12-19T20:14:10.213Z,97.12
2018-12-19T20:16:43.174Z,97.20
2018-12-19T20:19:10.405Z,97.26
2018-12-19T20:21:37.663Z,97.26
2018-12-19T20:24:05.025Z,97.23
2018-12-19T20:26:32.276Z,97.86
2018-12-19T20:28:59.493Z,97.78
2018-12-19T20:31:26.773Z,98.06
2018-12-19T20:33:54.012Z,96.74
2018-12-19T20:36:21.254Z,97.74
2018-12-19T20:38:48.579Z,96.88
2018-12-19T20:41:22.602Z,95.87
2018-12-19T20:43:49.904Z,96.89
2018-12-19T20:46:17.193Z,96.72
2018-12-19T20:48:44.432Z,97.17
2018-12-19T20:51:11.880Z,96.80
2018-12-19T20:53:39.144Z,97.44
2018-12-19T20:56:06.496Z,97.04
2018-12-19T20:58:33.818Z,97.20
2018-12-19T21:01:01.196Z,96.33
2018-12-19T21:03:28.425Z,95.72
2018-12-19T21:05:55.796Z,96.80
2018-12-19T21:08:23.075Z,97.05
2018-12-19T21:10:50.401Z,96.85
2018-12-19T21:13:17.687Z,97.60
2018-12-19T21:15:45.012Z,98.09
2018-12-19T21:18:18.084Z,96.56
2018-12-19T21:20:45.349Z,96.03
2018-12-19T21:23:12.620Z,97.23
2018-12-19T21:25:39.829Z,97.72
2018-12-19T21:28:07.075Z,99.15
2018-12-19T21:30:34.407Z,99.17
2018-12-19T21:33:01.651Z,99.74
2018-12-19T21:35:28.860Z,100.00
2018-12-19T21:37:56.151Z,100.00
2018-12-19T21:40:23.612Z,100.00
2018-12-19T21:42:51.021Z,100.00
2018-12-19T21:45:18.265Z,100.00
2018-12-19T21:47:45.582Z,100.00
2018-12-19T21:50:13.067Z,100.00
2018-12-19T21:52:40.572Z,100.00
2018-12-19T21:55:07.872Z,100.00
2018-12-19T21:57:35.125Z,100.00
2018-12-19T22:00:02.844Z,100.00
2018-12-19T22:02:30.235Z,100.00
2018-12-19T22:04:57.860Z,100.00
2018-12-19T22:07:25.311Z,100.00
2018-12-19T22:09:52.919Z,100.00
2018-12-19T22:12:20.256Z,100.00
2018-12-19T22:14:47.582Z,100.00
2018-12-19T22:17:20.627Z,100.00
2018-12-19T22:19:47.975Z,100.00
2018-12-19T22:22:15.237Z,100.00
2018-12-19T22:24:42.453Z,100.00
2018-12-19T22:27:09.815Z,100.00
2018-12-19T22:29:37.135Z,100.00
2018-12-19T22:32:04.567Z,100.00
2018-12-19T22:34:31.890Z,100.00
2018-12-19T22:36:59.460Z,100.00
2018-12-19T22:39:26.693Z,100.00
2018-12-19T22:41:54.041Z,100.00
2018-12-19T22:44:21.344Z,100.00
2018-12-19T22:46:48.636Z,100.00
2018-12-19T22:49:15.949Z,100.00
2018-12-19T22:51:43.692Z,100.00
2018-12-19T22:54:11.148Z,100.00
2018-12-19T22:56:38.622Z,100.00
2018-12-19T22:59:06.253Z,100.00
2018-12-19T23:01:39.918Z,100.00
2018-12-19T23:04:07.449Z,100.00
2018-12-19T23:06:35.615Z,100.00
2018-12-19T23:09:06.048Z,100.00
2018-12-19T23:11:33.404Z,100.00
2018-12-19T23:14:00.693Z,100.00
2018-12-19T23:16:28.026Z,100.00
2018-12-19T23:18:55.680Z,100.00
2018-12-19T23:21:23.420Z,100.00
2018-12-19T23:23:50.704Z,100.00
2018-12-19T23:26:25.927Z,100.00
2018-12-19T23:28:57.993Z,100.00
2018-12-19T23:31:25.305Z,100.00
2018-12-19T23:33:52.561Z,100.00
2018-12-19T23:36:19.894Z,100.00
2018-12-19T23:38:47.294Z,100.00
2018-12-19T23:41:14.560Z,100.00
2018-12-19T23:43:41.865Z,100.00
2018-12-19T23:46:09.140Z,100.00
2018-12-19T23:48:36.434Z,100.00
2018-12-19T23:51:03.910Z,100.00
2018-12-19T23:53:31.298Z,100.00
2018-12-19T23:55:58.605Z,100.00
2018-12-19T23:58:25.845Z,100.00
